»·PEaware :: N101WS KCMA-KSBA

N101WS :: KCMA-KSBA

FLIGHT INFORMATION

Flight Status: Arrived
Operator: Privately registered:
United States
More flights under this callsign
Pilot: Mark K. (33451)
Aircraft: CESSNA 172 SKYHAWK
(C172)
More flights by this aircraft type
Origin: KCMA Camarillo
United States
Destination: KSBA Santa Barbara Mun
United States
More flights between these airports :: More routes between these airports
Route: VTU282 KWANG
File this flight plan on PilotEdge
Remarks:
Altitude:
(Current/Filed)
4,000ft
Speed:
(Current/Filed)
105kts
Departed: 15-Feb-21 10:14 PM
Arrived: 15-Feb-21 10:39 PM
Distance/Time
Traveled:
39nm/0:25
Distance/Time
To Go:
Arrived

Flight Plot

Page will automatically refresh every two minutes.


Map Options




Map Legend


Flown Route
Filed Route
Departure Airport
Arrival Airport
Navaid (VOR, NDB)
Fix

Horizontal Profiles

Position Reports

Time Latitude Longitude Heading Altitude Ground
Speed
15-Feb-21 21:48 34.210440 -119.080659 269 76ft 0kts
15-Feb-21 21:49 34.210440 -119.080659 269 76ft 0kts
15-Feb-21 21:50 34.210440 -119.080659 269 76ft 0kts
15-Feb-21 21:51 34.210440 -119.080659 269 76ft 0kts
15-Feb-21 21:52 34.210440 -119.080659 269 76ft 0kts
15-Feb-21 21:53 34.210440 -119.080659 269 76ft 0kts
15-Feb-21 21:54 34.210440 -119.080659 269 76ft 0kts
15-Feb-21 21:55 34.210440 -119.080659 269 76ft 0kts
15-Feb-21 21:56 34.210440 -119.080659 269 76ft 0kts
15-Feb-21 21:57 34.210440 -119.080659 269 76ft 0kts
15-Feb-21 22:06 34.210442 -119.080884 90 76ft 0kts
15-Feb-21 22:07 34.210442 -119.080884 90 76ft 0kts
15-Feb-21 22:08 34.210442 -119.080884 90 76ft 0kts
15-Feb-21 22:09 34.210442 -119.080884 90 76ft 0kts
15-Feb-21 22:10 34.210442 -119.080884 90 76ft 0kts
15-Feb-21 22:11 34.210442 -119.080846 89 76ft 1kts
15-Feb-21 22:12 34.211257 -119.084593 350 74ft 22kts
15-Feb-21 22:13 34.212823 -119.084627 358 76ft 3kts
15-Feb-21 22:14 34.213994 -119.097800 262 460ft 79kts
15-Feb-21 22:15 34.220355 -119.126953 284 1353ft 103kts
15-Feb-21 22:16 34.229789 -119.153956 285 1930ft 102kts
15-Feb-21 22:17 34.241579 -119.184490 287 2607ft 97kts
15-Feb-21 22:18 34.252728 -119.213341 287 3288ft 91kts
15-Feb-21 22:19 34.262376 -119.240842 287 3937ft 89kts
15-Feb-21 22:20 34.271518 -119.272051 287 3955ft 101kts
15-Feb-21 22:21 34.279824 -119.304860 287 3954ft 101kts
15-Feb-21 22:22 34.286597 -119.337925 271 3960ft 103kts
15-Feb-21 22:22 34.288289 -119.366792 280 3954ft 102kts
15-Feb-21 22:24 34.293575 -119.406643 281 3955ft 103kts
15-Feb-21 22:25 34.298549 -119.441947 281 3705ft 111kts
15-Feb-21 22:26 34.303797 -119.479210 281 3290ft 113kts
15-Feb-21 22:26 34.308358 -119.510822 286 2938ft 115kts
15-Feb-21 22:27 34.319630 -119.544796 292 2964ft 107kts
15-Feb-21 22:29 34.333528 -119.583643 293 2965ft 108kts
15-Feb-21 22:30 34.343703 -119.611777 292 2996ft 93kts
15-Feb-21 22:31 34.355250 -119.644231 293 2964ft 107kts
15-Feb-21 22:31 34.365039 -119.671206 294 2791ft 96kts
15-Feb-21 22:32 34.375535 -119.700258 293 2362ft 96kts
15-Feb-21 22:33 34.386462 -119.730760 293 1768ft 100kts
15-Feb-21 22:34 34.396566 -119.758841 293 1243ft 86kts
15-Feb-21 22:35 34.405598 -119.784292 292 966ft 75kts
15-Feb-21 22:36 34.414665 -119.806427 303 952ft 74kts
15-Feb-21 22:37 34.426203 -119.820926 299 597ft 62kts
15-Feb-21 22:38 34.428001 -119.838696 318 13ft 21kts
15-Feb-21 22:39 34.431216 -119.839038 58 14ft 20kts
15-Feb-21 22:40 34.431482 -119.838226 75 14ft 0kts
15-Feb-21 22:41 34.431482 -119.838226 75 14ft 0kts
15-Feb-21 22:42 34.431482 -119.838226 75 14ft 0kts
15-Feb-21 22:43 34.431482 -119.838226 75 14ft 0kts
15-Feb-21 22:44 34.431482 -119.838226 75 14ft 0kts

Navigation Log

Ident Type
Flight plan parsing failed, navigation log unavailable